Time;durP1;ratioP1;P1;durP2;ratioP2;P2;SDS_P1;SDS_P2;PMS_P1;PMS_P2;Temp;Humidity;BMP_temperature;BMP_pressure;BME280_temperature;BME280_humidity;BME280_pressure;Samples;Min_cycle;Max_cycle;Signal;HPM_P1;HPM_P2
2021/09/29 00:01:56;;;;;;;0.40;0.20;;;13.70;99.90;;;;;;4971953;28;20384;-71
2021/09/29 00:04:22;;;;;;;1.00;0.90;;;13.50;99.90;;;;;;4971986;28;20454;-71
2021/09/29 00:06:48;;;;;;;0.40;0.40;;;13.50;99.90;;;;;;4971687;28;20885;-71
2021/09/29 00:09:14;;;;;;;0.40;0.20;;;13.50;99.90;;;;;;4972238;28;20439;-73
2021/09/29 00:11:40;;;;;;;0.40;0.30;;;13.50;99.90;;;;;;4972902;28;20411;-70
2021/09/29 00:14:05;;;;;;;0.40;0.20;;;13.50;99.90;;;;;;4975913;28;20384;-71
2021/09/29 00:16:31;;;;;;;0.40;0.20;;;13.50;99.90;;;;;;4975116;28;20392;-71
2021/09/29 00:18:57;;;;;;;0.40;0.20;;;13.50;99.90;;;;;;4975786;28;20388;-71
2021/09/29 00:21:24;;;;;;;0.60;0.50;;;13.60;99.90;;;;;;4974679;28;20487;-71
2021/09/29 00:23:50;;;;;;;0.40;0.40;;;13.70;99.90;;;;;;4975507;28;20395;-71
2021/09/29 00:26:16;;;;;;;0.40;0.20;;;13.60;99.90;;;;;;4975496;28;20452;-71
2021/09/29 00:28:41;;;;;;;0.40;0.20;;;13.60;99.90;;;;;;4974744;28;20396;-70
2021/09/29 00:31:22;;;;;;;0.40;0.30;;;13.60;99.90;;;;;;4975702;28;20399;-70
2021/09/29 00:33:50;;;;;;;0.40;0.20;;;13.60;99.90;;;;;;4974994;28;20384;-73
2021/09/29 00:36:16;;;;;;;0.40;0.25;;;13.70;99.90;;;;;;4975715;28;20392;-71
2021/09/29 00:38:41;;;;;;;0.40;0.20;;;13.70;99.90;;;;;;4974626;28;20507;-71
2021/09/29 00:41:07;;;;;;;0.40;0.23;;;13.70;99.90;;;;;;4975348;28;20399;-71
2021/09/29 00:43:32;;;;;;;0.40;0.20;;;13.70;99.90;;;;;;4974923;28;20749;-73
2021/09/29 00:45:58;;;;;;;0.40;0.20;;;13.60;99.90;;;;;;4990091;28;20735;-72
2021/09/29 00:48:24;;;;;;;0.40;0.20;;;13.60;99.90;;;;;;4977338;28;20493;-73
2021/09/29 00:50:49;;;;;;;0.40;0.20;;;13.50;99.90;;;;;;4994072;28;20394;-71
2021/09/29 00:53:17;;;;;;;0.40;0.30;;;13.40;99.90;;;;;;4994675;28;20441;-71
2021/09/29 00:55:43;;;;;;;0.40;0.25;;;13.40;99.90;;;;;;4994157;28;20394;-71
2021/09/29 00:58:08;;;;;;;0.40;0.20;;;13.40;99.90;;;;;;4994505;28;20422;-71
2021/09/29 01:00:34;;;;;;;0.40;0.30;;;13.40;99.90;;;;;;4994031;28;20406;-71
2021/09/29 01:03:01;;;;;;;0.40;0.30;;;13.30;99.90;;;;;;4994554;28;20882;-71
2021/09/29 01:05:26;;;;;;;0.40;0.20;;;13.10;99.90;;;;;;4994136;28;20387;-74
2021/09/29 01:08:00;;;;;;;0.40;0.20;;;13.10;99.90;;;;;;4994523;28;20405;-72
2021/09/29 01:10:55;;;;;;;0.70;0.60;;;13.10;99.90;;;;;;4994369;28;20436;-73
2021/09/29 01:13:32;;;;;;;0.40;0.20;;;13.00;99.90;;;;;;4994539;28;20389;-72
2021/09/29 01:16:02;;;;;;;0.40;0.30;;;13.10;99.90;;;;;;4994685;28;20385;-71
2021/09/29 01:18:32;;;;;;;0.40;0.20;;;13.10;99.90;;;;;;4993506;28;20791;-74
2021/09/29 01:21:06;;;;;;;0.40;0.30;;;13.10;99.90;;;;;;4994850;28;20860;-73
2021/09/29 01:23:44;;;;;;;0.40;0.30;;;13.00;99.90;;;;;;4993364;28;20394;-73
2021/09/29 01:26:17;;;;;;;0.40;0.20;;;13.10;99.90;;;;;;4993832;28;20424;-73
2021/09/29 01:28:50;;;;;;;0.40;0.20;;;13.00;99.90;;;;;;4993506;28;20402;-71
2021/09/29 01:31:18;;;;;;;0.40;0.20;;;13.00;99.90;;;;;;4993885;28;20426;-72
2021/09/29 01:33:45;;;;;;;0.40;0.30;;;13.10;99.90;;;;;;4993352;28;20735;-73
2021/09/29 01:36:12;;;;;;;0.40;0.20;;;13.00;99.90;;;;;;4993738;28;20934;-72
2021/09/29 01:38:40;;;;;;;0.50;0.40;;;13.10;99.90;;;;;;4992893;28;20775;-73
2021/09/29 01:41:07;;;;;;;0.40;0.30;;;13.50;99.90;;;;;;4993700;28;20398;-73
2021/09/29 01:43:33;;;;;;;0.40;0.20;;;13.90;99.90;;;;;;4993223;28;20396;-72
2021/09/29 01:45:59;;;;;;;0.40;0.30;;;13.90;99.90;;;;;;4978738;28;20959;-71
2021/09/29 01:48:25;;;;;;;0.40;0.20;;;14.10;99.90;;;;;;4974191;28;20384;-72
2021/09/29 01:50:59;;;;;;;0.40;0.20;;;14.30;99.90;;;;;;4973601;28;20539;-72
2021/09/29 01:53:32;;;;;;;0.40;0.20;;;14.40;99.90;;;;;;4974224;28;20433;-71
2021/09/29 01:56:00;;;;;;;0.40;0.30;;;14.50;99.90;;;;;;4974191;28;20749;-71
2021/09/29 01:58:31;;;;;;;1.40;0.60;;;14.60;99.90;;;;;;4973930;28;20415;-72
2021/09/29 02:00:56;;;;;;;0.40;0.28;;;14.60;99.90;;;;;;4974173;28;20809;-72
2021/09/29 02:03:22;;;;;;;0.40;0.20;;;14.60;99.90;;;;;;4973673;28;20480;-72
2021/09/29 02:05:50;;;;;;;0.40;0.20;;;14.60;99.90;;;;;;4973271;28;20764;-72
2021/09/29 02:08:16;;;;;;;0.40;0.20;;;14.70;99.90;;;;;;4973677;28;20392;-73
2021/09/29 02:10:42;;;;;;;0.40;0.20;;;14.70;99.90;;;;;;4973085;28;20714;-71
2021/09/29 02:13:07;;;;;;;0.40;0.20;;;14.80;99.90;;;;;;4973595;28;20419;-71
2021/09/29 02:15:33;;;;;;;0.40;0.20;;;14.80;99.90;;;;;;4973198;28;20395;-73
2021/09/29 02:17:58;;;;;;;0.40;0.20;;;14.80;99.90;;;;;;4973582;28;20426;-71
2021/09/29 02:20:24;;;;;;;0.40;0.20;;;14.90;99.90;;;;;;4973426;28;20412;-70
2021/09/29 02:22:50;;;;;;;0.40;0.20;;;14.90;99.90;;;;;;4972841;28;20384;-72
2021/09/29 02:25:16;;;;;;;0.40;0.30;;;14.90;99.90;;;;;;4973369;28;20494;-71
2021/09/29 02:27:41;;;;;;;0.40;0.30;;;14.90;99.90;;;;;;4972791;28;20762;-72
2021/09/29 02:30:09;;;;;;;0.40;0.20;;;15.00;99.90;;;;;;4973348;28;20841;-71
2021/09/29 02:32:36;;;;;;;0.40;0.30;;;14.90;99.90;;;;;;4972333;28;20975;-72
2021/09/29 02:35:04;;;;;;;0.40;0.20;;;14.90;99.90;;;;;;4972580;28;20388;-71
2021/09/29 02:37:30;;;;;;;0.40;0.20;;;14.90;99.90;;;;;;4972791;28;20412;-71
2021/09/29 02:39:55;;;;;;;0.40;0.30;;;14.90;99.90;;;;;;4972534;28;20403;-71
2021/09/29 02:42:21;;;;;;;0.40;0.20;;;14.90;99.90;;;;;;4973131;28;20432;-71
2021/09/29 02:44:47;;;;;;;0.40;0.30;;;14.90;99.90;;;;;;4977204;28;20444;-70
2021/09/29 02:47:13;;;;;;;0.40;0.20;;;14.90;99.90;;;;;;4992616;28;20430;-71
2021/09/29 02:49:38;;;;;;;0.40;0.30;;;15.00;99.90;;;;;;4991757;28;20383;-70
2021/09/29 02:52:04;;;;;;;0.40;0.22;;;14.90;99.90;;;;;;4992152;28;20942;-71
2021/09/29 02:54:30;;;;;;;0.40;0.20;;;15.00;99.90;;;;;;4992313;28;20473;-71
2021/09/29 02:56:56;;;;;;;0.40;0.20;;;14.90;99.90;;;;;;4991212;28;20564;-71
2021/09/29 02:59:21;;;;;;;0.40;0.30;;;15.00;99.90;;;;;;4992366;28;20467;-70
2021/09/29 03:01:47;;;;;;;0.40;0.20;;;14.90;99.90;;;;;;4991286;28;20374;-70
2021/09/29 03:04:13;;;;;;;0.40;0.20;;;15.00;99.90;;;;;;4974618;28;20740;-71
2021/09/29 03:06:38;;;;;;;0.40;0.20;;;15.00;99.90;;;;;;4991673;28;20759;-70
2021/09/29 03:09:04;;;;;;;0.40;0.20;;;15.00;99.90;;;;;;4992040;28;20488;-71
2021/09/29 03:11:30;;;;;;;0.40;0.20;;;15.10;99.90;;;;;;4992005;28;20426;-71
2021/09/29 03:13:56;;;;;;;0.40;0.30;;;15.10;99.90;;;;;;4991467;28;20383;-72
2021/09/29 03:16:21;;;;;;;0.40;0.20;;;15.10;99.90;;;;;;4991775;28;20386;-70
2021/09/29 03:18:50;;;;;;;0.40;0.20;;;15.10;99.90;;;;;;4991061;28;20457;-71
2021/09/29 03:21:16;;;;;;;0.40;0.30;;;15.10;99.90;;;;;;4991830;28;20481;-71
2021/09/29 03:23:42;;;;;;;0.40;0.20;;;15.00;99.90;;;;;;4991207;28;20395;-71
2021/09/29 03:26:08;;;;;;;0.40;0.28;;;15.00;99.90;;;;;;4990136;28;20799;-70
2021/09/29 03:28:34;;;;;;;0.40;0.20;;;15.10;99.90;;;;;;4991740;28;20460;-70
2021/09/29 03:30:59;;;;;;;0.40;0.20;;;15.00;99.90;;;;;;4991703;28;20539;-70
2021/09/29 03:33:25;;;;;;;0.40;0.20;;;15.00;99.90;;;;;;4991822;28;20473;-70
2021/09/29 03:35:51;;;;;;;0.40;0.30;;;15.00;99.90;;;;;;4990687;28;20398;-70
2021/09/29 03:38:17;;;;;;;0.40;0.30;;;15.00;99.90;;;;;;4991268;28;20414;-70
2021/09/29 03:40:43;;;;;;;0.40;0.30;;;15.10;99.90;;;;;;4991238;28;20869;-70
2021/09/29 03:43:09;;;;;;;0.40;0.20;;;15.00;99.90;;;;;;4991333;28;20510;-70
2021/09/29 03:45:34;;;;;;;0.40;0.20;;;15.00;99.90;;;;;;4979953;28;20395;-70
2021/09/29 03:48:00;;;;;;;0.40;0.20;;;15.00;99.90;;;;;;4971574;28;20439;-70
2021/09/29 03:50:25;;;;;;;0.40;0.40;;;14.70;99.90;;;;;;4971947;28;20380;-70
2021/09/29 03:52:51;;;;;;;0.40;0.20;;;14.60;99.90;;;;;;4971532;28;20468;-71
2021/09/29 03:55:17;;;;;;;0.40;0.20;;;14.60;99.90;;;;;;4972154;28;20428;-71
2021/09/29 03:57:43;;;;;;;0.40;0.40;;;14.70;99.90;;;;;;4971379;28;20908;-71
2021/09/29 04:00:11;;;;;;;0.40;0.20;;;14.70;99.90;;;;;;4972111;28;20392;-71
2021/09/29 04:02:38;;;;;;;0.40;0.20;;;14.60;99.90;;;;;;4972290;28;20805;-72
2021/09/29 04:05:05;;;;;;;0.40;0.20;;;14.40;99.90;;;;;;4972468;28;20387;-72
2021/09/29 04:07:30;;;;;;;0.40;0.20;;;14.40;99.90;;;;;;4972413;28;20433;-71
2021/09/29 04:09:56;;;;;;;0.40;0.20;;;14.60;99.90;;;;;;4971547;28;20830;-71
2021/09/29 04:12:22;;;;;;;0.40;0.40;;;14.50;99.90;;;;;;4972356;28;20378;-71
2021/09/29 04:14:52;;;;;;;0.40;0.20;;;14.60;99.90;;;;;;4971632;28;20384;-72
2021/09/29 04:17:18;;;;;;;0.40;0.20;;;14.80;99.90;;;;;;4972184;28;20415;-71
2021/09/29 04:19:44;;;;;;;0.60;0.60;;;14.80;99.90;;;;;;4971431;28;20727;-71
2021/09/29 04:22:11;;;;;;;0.40;0.30;;;14.90;99.90;;;;;;4972294;28;20483;-71
2021/09/29 04:24:37;;;;;;;0.40;0.20;;;14.80;99.90;;;;;;4972245;28;20662;-71
2021/09/29 04:27:04;;;;;;;0.40;0.20;;;14.70;99.90;;;;;;4971371;28;20474;-72
2021/09/29 04:29:30;;;;;;;0.40;0.20;;;14.70;99.90;;;;;;4972257;28;20474;-71
2021/09/29 04:31:56;;;;;;;0.40;0.20;;;14.70;99.90;;;;;;4971907;28;20498;-71
2021/09/29 04:34:22;;;;;;;0.40;0.20;;;14.50;99.90;;;;;;4972236;28;20388;-71
2021/09/29 04:36:48;;;;;;;0.40;0.20;;;14.40;99.90;;;;;;4971135;28;20392;-71
2021/09/29 04:39:14;;;;;;;0.40;0.20;;;14.40;99.90;;;;;;4972225;28;20400;-71
2021/09/29 04:41:40;;;;;;;0.40;0.20;;;14.40;99.90;;;;;;4971323;28;20402;-71
2021/09/29 04:44:07;;;;;;;0.40;0.30;;;14.40;99.90;;;;;;4954681;28;20396;-71
2021/09/29 04:46:32;;;;;;;0.40;0.20;;;14.40;99.90;;;;;;4991010;28;20403;-71
2021/09/29 04:48:58;;;;;;;0.40;0.20;;;14.30;99.90;;;;;;4989058;28;20395;-71
2021/09/29 04:51:24;;;;;;;0.40;0.20;;;14.10;99.90;;;;;;4983864;28;20391;-71
2021/09/29 04:53:50;;;;;;;0.40;0.30;;;14.20;99.90;;;;;;4989835;28;20395;-70
2021/09/29 04:56:15;;;;;;;0.40;0.20;;;14.40;99.90;;;;;;4991201;28;20473;-70
2021/09/29 04:58:43;;;;;;;0.40;0.20;;;14.50;99.90;;;;;;4993389;28;20443;-70
2021/09/29 05:01:10;;;;;;;0.40;0.20;;;14.50;99.90;;;;;;4994823;28;20386;-72
2021/09/29 05:03:36;;;;;;;0.40;0.20;;;14.60;99.90;;;;;;4994826;28;20378;-70
2021/09/29 05:06:02;;;;;;;0.40;0.30;;;14.60;99.90;;;;;;4993990;28;20437;-70
2021/09/29 05:08:29;;;;;;;0.40;0.20;;;14.70;99.90;;;;;;4994373;28;20390;-71
2021/09/29 05:11:07;;;;;;;0.40;0.30;;;14.80;99.90;;;;;;4993655;28;20864;-70
2021/09/29 05:13:34;;;;;;;0.40;0.20;;;14.80;99.90;;;;;;4994632;28;20813;-71
2021/09/29 05:16:02;;;;;;;0.40;0.20;;;14.90;99.90;;;;;;4993731;28;20397;-71
2021/09/29 05:18:28;;;;;;;0.40;0.20;;;14.90;99.90;;;;;;4994054;28;20887;-70
2021/09/29 05:20:55;;;;;;;0.40;0.20;;;15.00;99.90;;;;;;4993424;28;20868;-71
2021/09/29 05:23:20;;;;;;;0.40;0.20;;;15.10;99.90;;;;;;4994534;28;20836;-70
2021/09/29 05:25:46;;;;;;;0.40;0.20;;;15.00;99.90;;;;;;4993251;28;20449;-71
2021/09/29 05:28:16;;;;;;;0.40;0.20;;;15.00;99.90;;;;;;4994364;28;20407;-71
2021/09/29 05:30:42;;;;;;;0.40;0.20;;;14.90;99.90;;;;;;4993681;28;20398;-71
2021/09/29 05:33:07;;;;;;;0.40;0.30;;;14.90;99.90;;;;;;4994154;28;20382;-71
2021/09/29 05:35:33;;;;;;;0.40;0.20;;;14.90;99.90;;;;;;4994149;28;20398;-70
2021/09/29 05:37:59;;;;;;;0.40;0.20;;;15.00;99.90;;;;;;4985484;28;20419;-70
2021/09/29 05:40:24;;;;;;;0.40;0.20;;;15.10;99.90;;;;;;4984766;28;20396;-70
2021/09/29 05:42:50;;;;;;;0.40;0.20;;;15.10;99.90;;;;;;4976055;28;20395;-70
2021/09/29 05:45:16;;;;;;;0.40;0.30;;;15.10;99.90;;;;;;4983332;28;20731;-70
2021/09/29 05:47:41;;;;;;;0.40;0.30;;;15.10;99.90;;;;;;4993867;28;20474;-71
2021/09/29 05:50:08;;;;;;;0.40;0.20;;;15.10;99.90;;;;;;4993419;28;20382;-71
2021/09/29 05:52:34;;;;;;;0.40;0.20;;;15.10;99.90;;;;;;4993530;28;20874;-71
2021/09/29 05:55:00;;;;;;;0.40;0.30;;;14.90;99.90;;;;;;4988869;28;20875;-70
2021/09/29 05:57:26;;;;;;;0.40;0.30;;;14.90;99.90;;;;;;4983442;28;20411;-70
2021/09/29 05:59:51;;;;;;;0.40;0.20;;;15.00;99.90;;;;;;4982319;28;20389;-70
2021/09/29 06:02:18;;;;;;;0.40;0.20;;;15.10;99.90;;;;;;4982479;28;20407;-70
2021/09/29 06:04:44;;;;;;;0.40;0.20;;;15.10;99.90;;;;;;4985270;28;20393;-69
2021/09/29 06:07:11;;;;;;;0.40;0.20;;;15.20;99.90;;;;;;4982499;28;20409;-70
2021/09/29 06:09:41;;;;;;;0.40;0.20;;;15.20;99.90;;;;;;4980660;28;20388;-70
2021/09/29 06:12:08;;;;;;;0.40;0.20;;;15.10;99.90;;;;;;4973266;28;20388;-71
2021/09/29 06:14:34;;;;;;;0.40;0.20;;;15.20;99.90;;;;;;4973369;28;20483;-70
2021/09/29 06:17:24;;;;;;;0.40;0.20;;;15.20;99.90;;;;;;4972619;28;20470;-70
2021/09/29 06:19:52;;;;;;;0.40;0.20;;;15.30;99.90;;;;;;4973049;28;20748;-70
2021/09/29 06:22:18;;;;;;;0.40;0.30;;;15.30;99.90;;;;;;4973812;28;20384;-70
2021/09/29 06:24:44;;;;;;;0.40;0.22;;;15.30;99.90;;;;;;4973342;28;20392;-69
2021/09/29 06:27:10;;;;;;;0.40;0.20;;;15.30;99.90;;;;;;4972636;28;20420;-69
2021/09/29 06:29:35;;;;;;;0.40;0.25;;;15.30;99.90;;;;;;4973667;28;20438;-70
2021/09/29 06:32:02;;;;;;;0.40;0.30;;;15.30;99.90;;;;;;4972818;28;20384;-71
2021/09/29 06:34:29;;;;;;;0.40;0.20;;;15.30;99.90;;;;;;4973562;28;20396;-71
2021/09/29 06:36:55;;;;;;;0.40;0.20;;;15.20;99.90;;;;;;4972783;28;20427;-70
2021/09/29 06:39:21;;;;;;;0.40;0.20;;;15.20;99.90;;;;;;4973325;28;20389;-71
2021/09/29 06:41:47;;;;;;;0.40;0.30;;;15.30;99.90;;;;;;4955176;28;20412;-72
2021/09/29 06:44:13;;;;;;;0.40;0.20;;;15.40;99.90;;;;;;4973618;28;20475;-71
2021/09/29 06:46:39;;;;;;;0.40;0.20;;;15.50;99.90;;;;;;4993008;28;20382;-71
2021/09/29 06:49:05;;;;;;;0.40;0.40;;;15.50;99.90;;;;;;4992126;28;20409;-71
2021/09/29 06:51:30;;;;;;;0.40;0.20;;;15.60;99.90;;;;;;4992502;28;20843;-71
2021/09/29 06:53:56;;;;;;;0.40;0.20;;;15.70;99.90;;;;;;4992095;28;20391;-71
2021/09/29 06:56:22;;;;;;;0.40;0.20;;;15.80;99.90;;;;;;4992725;28;20402;-71
2021/09/29 06:58:51;;;;;;;0.40;0.20;;;15.70;99.90;;;;;;4991768;28;20505;-73
2021/09/29 07:01:17;;;;;;;0.40;0.20;;;15.70;99.90;;;;;;4992662;28;20421;-71
2021/09/29 07:03:43;;;;;;;0.40;0.20;;;15.70;99.90;;;;;;4992739;28;20429;-72
2021/09/29 07:06:09;;;;;;;0.40;0.20;;;15.80;99.90;;;;;;4991943;28;20390;-70
2021/09/29 07:08:36;;;;;;;0.40;0.22;;;15.70;99.90;;;;;;4992416;28;20391;-71
2021/09/29 07:11:02;;;;;;;0.40;0.20;;;15.60;99.90;;;;;;4991813;28;20394;-71
2021/09/29 07:13:28;;;;;;;0.40;0.20;;;15.60;99.90;;;;;;4992210;28;20721;-70
2021/09/29 07:15:54;;;;;;;0.40;0.20;;;15.60;99.90;;;;;;4991966;28;20417;-72
2021/09/29 07:18:20;;;;;;;0.40;0.30;;;15.50;99.90;;;;;;4992136;28;20446;-71
2021/09/29 07:20:46;;;;;;;0.40;0.20;;;15.50;99.90;;;;;;4991942;28;20387;-71
2021/09/29 07:23:11;;;;;;;0.40;0.30;;;15.60;99.90;;;;;;4991329;28;20961;-71
2021/09/29 07:25:38;;;;;;;0.40;0.20;;;15.50;99.90;;;;;;4992088;28;20405;-71
2021/09/29 07:28:07;;;;;;;0.50;0.50;;;15.60;99.90;;;;;;4991557;28;20922;-71
2021/09/29 07:30:34;;;;;;;0.40;0.20;;;15.70;99.90;;;;;;4992124;28;20709;-71
2021/09/29 07:33:03;;;;;;;22.80;1.00;;;15.70;99.90;;;;;;4991487;28;20391;-72
2021/09/29 07:35:32;;;;;;;0.40;0.20;;;15.80;99.90;;;;;;4992194;28;20397;-71
2021/09/29 07:37:59;;;;;;;0.90;0.70;;;15.90;99.90;;;;;;4991426;28;20405;-71
2021/09/29 07:40:25;;;;;;;0.40;0.20;;;15.90;99.90;;;;;;4992041;28;20732;-71
2021/09/29 07:42:51;;;;;;;0.40;0.30;;;16.10;99.90;;;;;;4991405;28;20525;-71
2021/09/29 07:45:17;;;;;;;0.40;0.40;;;16.20;99.90;;;;;;4991975;28;20841;-70
2021/09/29 07:47:42;;;;;;;0.40;0.20;;;16.20;99.90;;;;;;4992044;28;20409;-71
2021/09/29 07:50:08;;;;;;;0.40;0.20;;;16.30;99.90;;;;;;4991389;28;20377;-71
2021/09/29 07:52:35;;;;;;;0.40;0.30;;;16.20;99.90;;;;;;4991941;28;20466;-70
2021/09/29 07:55:01;;;;;;;0.40;0.30;;;16.10;99.90;;;;;;4991263;28;20506;-71
2021/09/29 07:57:27;;;;;;;0.40;0.20;;;16.20;99.90;;;;;;4991909;28;20416;-70
2021/09/29 07:59:52;;;;;;;0.40;0.30;;;16.20;99.90;;;;;;4990986;28;20751;-71
2021/09/29 08:02:18;;;;;;;0.40;0.20;;;16.10;99.90;;;;;;4991746;28;20453;-70
2021/09/29 08:04:44;;;;;;;0.40;0.30;;;16.10;99.90;;;;;;4991549;28;20386;-70
2021/09/29 08:07:09;;;;;;;0.40;0.30;;;16.30;99.90;;;;;;4990915;28;20437;-71
2021/09/29 08:09:35;;;;;;;0.40;0.20;;;16.40;99.90;;;;;;4991395;28;20390;-70
2021/09/29 08:12:01;;;;;;;0.40;0.20;;;16.50;99.90;;;;;;4991302;28;20387;-71
2021/09/29 08:14:27;;;;;;;0.40;0.20;;;16.50;99.90;;;;;;4991518;28;20382;-70
2021/09/29 08:16:53;;;;;;;0.40;0.20;;;16.50;99.90;;;;;;4990797;28;20750;-72
2021/09/29 08:19:19;;;;;;;0.40;0.20;;;16.30;99.90;;;;;;4991633;28;20393;-70
2021/09/29 08:21:46;;;;;;;0.40;0.20;;;16.20;99.90;;;;;;4991689;28;20465;-70
2021/09/29 08:24:19;;;;;;;0.40;0.20;;;16.20;99.90;;;;;;4990934;28;20653;-70
2021/09/29 08:29:27;;;;;;;0.40;0.20;;;16.30;99.90;;;;;;4991063;28;20414;-70
2021/09/29 08:34:37;;;;;;;0.40;0.20;;;16.10;99.90;;;;;;4995422;28;20866;-71
2021/09/29 08:39:42;;;;;;;0.40;0.30;;;16.10;99.90;;;;;;4995216;28;20476;-70
2021/09/29 08:47:24;;;;;;;0.40;0.30;;;16.30;99.90;;;;;;4976993;28;20403;-70
2021/09/29 09:14:42;;;;;;;0.40;0.20;;;16.60;99.90;;;;;;4922000;28;20874;-71
2021/09/29 09:17:33;;;;;;;0.40;0.30;;;17.30;99.80;;;;;;4975054;28;20423;-71
2021/09/29 09:20:22;;;;;;;0.40;0.20;;;17.50;99.80;;;;;;4974475;28;20387;-73
2021/09/29 09:22:54;;;;;;;0.40;0.30;;;17.20;99.90;;;;;;4975026;28;20389;-71
2021/09/29 09:25:38;;;;;;;0.40;0.30;;;17.00;99.90;;;;;;4974347;28;20430;-71
2021/09/29 09:28:05;;;;;;;0.40;0.25;;;16.90;99.90;;;;;;4973892;28;20964;-71
2021/09/29 09:30:34;;;;;;;0.40;0.30;;;17.00;99.90;;;;;;4974848;28;20388;-71
2021/09/29 09:33:00;;;;;;;0.40;0.20;;;17.00;99.90;;;;;;4974260;28;20386;-71
2021/09/29 09:35:39;;;;;;;0.40;0.30;;;17.20;99.90;;;;;;4974651;28;20384;-71
2021/09/29 09:38:23;;;;;;;0.40;0.30;;;17.10;99.90;;;;;;4974136;28;20408;-72
2021/09/29 09:41:00;;;;;;;0.40;0.30;;;17.20;99.90;;;;;;4974831;28;20725;-70
2021/09/29 09:43:27;;;;;;;0.40;0.20;;;17.10;99.90;;;;;;4974395;28;20424;-71
2021/09/29 09:45:53;;;;;;;0.40;0.20;;;17.20;99.90;;;;;;4982061;28;20465;-70
2021/09/29 09:48:22;;;;;;;0.40;0.20;;;17.20;99.90;;;;;;4993448;28;20529;-70
2021/09/29 09:50:55;;;;;;;0.40;0.20;;;17.30;99.90;;;;;;4993862;28;20444;-70
2021/09/29 09:53:21;;;;;;;0.40;0.30;;;17.10;99.90;;;;;;4993292;28;20504;-71
2021/09/29 09:55:46;;;;;;;0.40;0.20;;;17.20;99.90;;;;;;4993614;28;20426;-71
2021/09/29 09:58:12;;;;;;;0.40;0.30;;;17.20;99.90;;;;;;4992937;28;20414;-71
2021/09/29 10:00:38;;;;;;;0.40;0.30;;;17.30;99.90;;;;;;4993685;28;20394;-70
2021/09/29 10:03:05;;;;;;;0.40;0.30;;;17.40;99.90;;;;;;4993240;28;20391;-71
2021/09/29 10:05:31;;;;;;;0.40;0.25;;;17.50;99.90;;;;;;4993532;28;20405;-70
2021/09/29 10:07:58;;;;;;;0.40;0.20;;;17.40;99.90;;;;;;4993338;28;20422;-70
2021/09/29 10:27:13;;;;;;;0.40;0.30;;;17.60;99.90;;;;;;4992609;28;20422;-71
2021/09/29 10:29:46;;;;;;;0.40;0.20;;;17.60;99.90;;;;;;4993165;28;20396;-70
2021/09/29 10:35:10;;;;;;;0.50;0.40;;;17.70;99.90;;;;;;4992780;28;20429;-70
2021/09/29 11:03:40;;;;;;;0.40;0.30;;;18.50;98.50;;;;;;4973114;28;20868;-72
2021/09/29 11:06:39;;;;;;;0.40;0.30;;;18.20;97.70;;;;;;4972703;28;20472;-70
2021/09/29 11:30:38;;;;;;;0.40;0.20;;;17.90;98.10;;;;;;4972752;28;20423;-69
2021/09/29 11:33:08;;;;;;;0.40;0.20;;;18.00;99.00;;;;;;4972303;28;20402;-70
2021/09/29 12:11:21;;;;;;;0.40;0.20;;;19.70;93.50;;;;;;4995273;28;20378;-70
2021/09/29 12:14:10;;;;;;;0.40;0.30;;;19.40;93.80;;;;;;4995948;28;20378;-70
2021/09/29 12:16:37;;;;;;;0.40;0.30;;;19.20;94.20;;;;;;4995235;28;20997;-70
2021/09/29 12:19:05;;;;;;;0.40;0.20;;;19.20;94.80;;;;;;4995646;28;20398;-70
2021/09/29 12:21:54;;;;;;;0.40;0.30;;;19.80;94.30;;;;;;4994917;28;20477;-71
2021/09/29 12:24:30;;;;;;;0.40;0.30;;;20.50;93.00;;;;;;4994982;28;20383;-69
2021/09/29 12:26:58;;;;;;;0.40;0.20;;;20.30;91.00;;;;;;4995222;28;20422;-70
2021/09/29 12:38:03;;;;;;;0.40;0.20;;;19.30;93.20;;;;;;4995161;28;20409;-71
2021/09/29 12:40:35;;;;;;;0.40;0.30;;;19.10;92.40;;;;;;4994652;28;20795;-70
2021/09/29 12:43:04;;;;;;;0.40;0.20;;;19.10;92.50;;;;;;4995049;28;20425;-71
2021/09/29 12:45:38;;;;;;;0.40;0.25;;;18.90;92.80;;;;;;4991549;28;20396;-71
2021/09/29 12:48:07;;;;;;;0.40;0.20;;;18.80;92.90;;;;;;4975595;28;20380;-71
2021/09/29 12:53:15;;;;;;;0.47;0.40;;;18.70;93.10;;;;;;4975516;28;20388;-71
2021/09/29 12:55:45;;;;;;;0.40;0.20;;;18.70;93.40;;;;;;4975541;28;20387;-70
2021/09/29 12:58:11;;;;;;;0.40;0.30;;;18.80;93.30;;;;;;4974613;28;20507;-71
2021/09/29 13:00:36;;;;;;;0.40;0.30;;;18.80;93.80;;;;;;4975649;28;20825;-70
2021/09/29 13:03:05;;;;;;;0.40;0.30;;;18.60;94.00;;;;;;4975045;28;20884;-70
2021/09/29 13:05:31;;;;;;;0.40;0.20;;;18.50;94.50;;;;;;4974676;28;20853;-70
2021/09/29 13:07:57;;;;;;;0.40;0.20;;;18.20;95.30;;;;;;4982782;28;20420;-69
2021/09/29 13:10:23;;;;;;;0.40;0.30;;;18.20;95.90;;;;;;4981988;28;20419;-69
2021/09/29 13:12:51;;;;;;;0.40;0.20;;;18.20;96.30;;;;;;4979726;28;20555;-70
2021/09/29 13:15:18;;;;;;;0.40;0.20;;;18.10;96.70;;;;;;4984587;28;20385;-70
2021/09/29 13:17:46;;;;;;;0.40;0.20;;;18.00;97.10;;;;;;4978593;28;20406;-68
2021/09/29 13:20:16;;;;;;;0.40;0.30;;;17.80;97.60;;;;;;4985416;28;20391;-71
2021/09/29 13:22:46;;;;;;;0.40;0.30;;;17.80;98.80;;;;;;4982755;28;20388;-70
2021/09/29 13:36:50;;;;;;;0.40;0.30;;;17.40;99.90;;;;;;4974328;28;20387;-71
2021/09/29 13:38:56;;;;;;;0.40;0.20;;;17.30;99.90;;;;;;4979351;28;20424;-71
2021/09/29 13:41:22;;;;;;;0.40;0.30;;;17.10;99.90;;;;;;4983195;28;20528;-70
2021/09/29 13:43:48;;;;;;;0.40;0.30;;;17.00;99.90;;;;;;4985513;28;20386;-70
2021/09/29 13:46:13;;;;;;;0.40;0.20;;;17.00;99.90;;;;;;4992628;28;20386;-70
2021/09/29 13:48:39;;;;;;;0.40;0.20;;;16.90;99.90;;;;;;4982038;28;20389;-69
2021/09/29 13:51:05;;;;;;;0.40;0.20;;;17.00;99.90;;;;;;4988890;28;20386;-69
2021/09/29 13:53:31;;;;;;;0.40;0.20;;;17.00;99.90;;;;;;4984540;28;20488;-69
2021/09/29 13:55:59;;;;;;;0.40;0.20;;;16.90;99.90;;;;;;4985264;28;20393;-68
2021/09/29 14:01:39;;;;;;;0.40;0.20;;;16.80;99.90;;;;;;4985074;28;20397;-70
2021/09/29 14:31:36;;;;;;;0.40;0.30;;;16.30;99.90;;;;;;4950773;29;20398;-70
2021/09/29 14:34:03;;;;;;;0.40;0.20;;;16.30;99.90;;;;;;4988930;28;20588;-71
2021/09/29 14:36:28;;;;;;;0.40;0.30;;;16.80;99.90;;;;;;4992528;28;20390;-71
2021/09/29 14:38:54;;;;;;;0.40;0.30;;;17.40;99.90;;;;;;4993090;28;20414;-71
2021/09/29 14:41:19;;;;;;;0.40;0.30;;;18.00;99.90;;;;;;4992124;28;20387;-70
2021/09/29 14:43:45;;;;;;;0.40;0.20;;;18.00;99.90;;;;;;4992821;28;20390;-72
2021/09/29 14:46:11;;;;;;;0.40;0.20;;;18.20;99.90;;;;;;4977114;28;20482;-70
2021/09/29 14:48:36;;;;;;;0.40;0.30;;;18.10;99.90;;;;;;4972591;28;20403;-71
2021/09/29 14:51:08;;;;;;;0.40;0.30;;;17.60;99.90;;;;;;4981078;28;20581;-71
2021/09/29 14:53:38;;;;;;;0.40;0.28;;;17.20;99.90;;;;;;4972748;28;20391;-72
2021/09/29 14:56:06;;;;;;;0.40;0.20;;;16.90;99.90;;;;;;4972941;28;20399;-71
2021/09/29 14:58:33;;;;;;;0.40;0.30;;;16.70;99.90;;;;;;4972580;28;20463;-69
2021/09/29 15:00:59;;;;;;;0.40;0.20;;;15.30;99.90;;;;;;4978585;28;20419;-68
2021/09/29 15:03:25;;;;;;;0.40;0.20;;;14.30;99.90;;;;;;4991899;28;20385;-69
2021/09/29 15:05:51;;;;;;;0.40;0.20;;;14.20;99.90;;;;;;4992619;28;20796;-70
2021/09/29 15:08:17;;;;;;;0.40;0.40;;;14.00;99.90;;;;;;4991861;28;20391;-72
2021/09/29 15:10:44;;;;;;;0.40;0.20;;;13.80;99.90;;;;;;4992217;28;20383;-73
2021/09/29 15:13:12;;;;;;;0.40;0.20;;;13.50;99.90;;;;;;4975020;28;20390;-71
2021/09/29 15:15:47;;;;;;;0.40;0.30;;;13.30;99.90;;;;;;4991885;28;20382;-71
2021/09/29 15:18:19;;;;;;;0.40;0.30;;;13.30;99.90;;;;;;4992444;28;20778;-72
2021/09/29 15:21:22;;;;;;;0.40;0.22;;;13.30;99.90;;;;;;4992603;28;20394;-72
2021/09/29 15:23:55;;;;;;;0.40;0.20;;;13.20;99.90;;;;;;4988301;28;20395;-72
2021/09/29 15:48:10;;;;;;;0.40;0.20;;;13.20;99.90;;;;;;4986810;28;20437;-73
2021/09/29 15:50:44;;;;;;;0.40;0.20;;;13.20;99.90;;;;;;4983765;28;20378;-73
2021/09/29 15:53:39;;;;;;;0.40;0.30;;;13.20;99.90;;;;;;4979751;28;20398;-75
2021/09/29 15:56:10;;;;;;;0.40;0.20;;;13.10;99.90;;;;;;4987535;28;20422;-75
2021/09/29 16:20:26;;;;;;;0.40;0.30;;;13.00;99.90;;;;;;4986046;28;20400;-72
2021/09/29 16:37:43;;;;;;;0.40;0.30;;;12.90;99.90;;;;;;5009491;28;20423;-74
2021/09/29 16:40:09;;;;;;;0.40;0.20;;;12.80;99.90;;;;;;5010365;28;20443;-73
2021/09/29 16:42:35;;;;;;;0.40;0.20;;;12.90;99.90;;;;;;5009509;28;20874;-73
2021/09/29 16:45:04;;;;;;;0.40;0.20;;;12.80;99.90;;;;;;5003604;28;20387;-73
2021/09/29 16:47:30;;;;;;;0.40;0.20;;;13.00;99.90;;;;;;4990058;28;20786;-73
2021/09/29 16:49:57;;;;;;;0.40;0.30;;;13.00;99.90;;;;;;4990837;28;20382;-73
2021/09/29 16:54:51;;;;;;;0.40;0.22;;;12.90;99.90;;;;;;4993781;28;20379;-74
2021/09/29 16:57:23;;;;;;;0.40;0.30;;;12.80;99.90;;;;;;4994376;28;20394;-73
2021/09/29 16:59:55;;;;;;;0.40;0.20;;;12.80;99.90;;;;;;4976582;28;20445;-74
2021/09/29 17:02:21;;;;;;;0.40;0.30;;;12.80;99.90;;;;;;4994290;28;20497;-74
2021/09/29 17:04:48;;;;;;;0.40;0.20;;;12.80;99.90;;;;;;4993736;28;20411;-74
2021/09/29 17:07:14;;;;;;;0.40;0.30;;;12.80;99.90;;;;;;4994277;28;20387;-74